sensor_id;sensor_type;location;lat;lon;timestamp;P1;durP1;ratioP1;P2;durP2;ratioP2
23310;SDS011;11828;51.508;18.118;2023-11-19T00:01:23;75.68;;;30.17;;
23310;SDS011;11828;51.508;18.118;2023-11-19T00:03:49;67.72;;;29.05;;
23310;SDS011;11828;51.508;18.118;2023-11-19T00:06:15;71.95;;;29.15;;
23310;SDS011;11828;51.508;18.118;2023-11-19T00:08:42;70.68;;;30.02;;
23310;SDS011;11828;51.508;18.118;2023-11-19T00:11:09;72.95;;;30.05;;
23310;SDS011;11828;51.508;18.118;2023-11-19T00:13:36;69.18;;;29.10;;
23310;SDS011;11828;51.508;18.118;2023-11-19T00:16:02;69.55;;;27.95;;
23310;SDS011;11828;51.508;18.118;2023-11-19T00:18:29;63.17;;;25.85;;
23310;SDS011;11828;51.508;18.118;2023-11-19T00:20:55;73.45;;;27.73;;
23310;SDS011;11828;51.508;18.118;2023-11-19T00:23:21;69.13;;;29.10;;
23310;SDS011;11828;51.508;18.118;2023-11-19T00:25:48;70.28;;;29.13;;
23310;SDS011;11828;51.508;18.118;2023-11-19T00:28:14;71.53;;;28.60;;
23310;SDS011;11828;51.508;18.118;2023-11-19T00:30:40;68.68;;;28.25;;
23310;SDS011;11828;51.508;18.118;2023-11-19T00:33:07;73.47;;;29.20;;
23310;SDS011;11828;51.508;18.118;2023-11-19T00:35:33;77.38;;;29.85;;
23310;SDS011;11828;51.508;18.118;2023-11-19T00:37:59;79.97;;;29.55;;
23310;SDS011;11828;51.508;18.118;2023-11-19T00:40:25;68.15;;;26.90;;
23310;SDS011;11828;51.508;18.118;2023-11-19T00:42:51;66.72;;;25.90;;
23310;SDS011;11828;51.508;18.118;2023-11-19T00:45:18;72.65;;;29.42;;
23310;SDS011;11828;51.508;18.118;2023-11-19T00:47:44;64.47;;;26.98;;
23310;SDS011;11828;51.508;18.118;2023-11-19T00:50:10;65.95;;;26.55;;
23310;SDS011;11828;51.508;18.118;2023-11-19T00:52:38;66.85;;;25.75;;
23310;SDS011;11828;51.508;18.118;2023-11-19T00:55:04;75.78;;;27.90;;
23310;SDS011;11828;51.508;18.118;2023-11-19T00:57:31;70.97;;;26.58;;
23310;SDS011;11828;51.508;18.118;2023-11-19T01:00:01;72.97;;;27.42;;
23310;SDS011;11828;51.508;18.118;2023-11-19T01:02:34;64.22;;;27.45;;
23310;SDS011;11828;51.508;18.118;2023-11-19T01:05:00;76.15;;;27.77;;
23310;SDS011;11828;51.508;18.118;2023-11-19T01:07:26;73.43;;;28.77;;
23310;SDS011;11828;51.508;18.118;2023-11-19T01:09:52;66.53;;;27.45;;
23310;SDS011;11828;51.508;18.118;2023-11-19T01:12:19;59.28;;;26.27;;
23310;SDS011;11828;51.508;18.118;2023-11-19T01:14:45;66.45;;;26.80;;
23310;SDS011;11828;51.508;18.118;2023-11-19T01:17:11;63.22;;;24.52;;
23310;SDS011;11828;51.508;18.118;2023-11-19T01:19:37;63.03;;;25.80;;
23310;SDS011;11828;51.508;18.118;2023-11-19T01:22:04;66.30;;;24.48;;
23310;SDS011;11828;51.508;18.118;2023-11-19T01:24:30;67.95;;;26.45;;
23310;SDS011;11828;51.508;18.118;2023-11-19T01:26:56;65.50;;;27.15;;
23310;SDS011;11828;51.508;18.118;2023-11-19T01:29:23;64.47;;;26.52;;
23310;SDS011;11828;51.508;18.118;2023-11-19T01:31:49;63.13;;;25.83;;
23310;SDS011;11828;51.508;18.118;2023-11-19T01:34:16;66.97;;;25.25;;
23310;SDS011;11828;51.508;18.118;2023-11-19T01:36:42;65.32;;;25.00;;
23310;SDS011;11828;51.508;18.118;2023-11-19T01:39:09;63.72;;;25.20;;
23310;SDS011;11828;51.508;18.118;2023-11-19T01:41:35;67.85;;;26.77;;
23310;SDS011;11828;51.508;18.118;2023-11-19T01:44:02;69.00;;;25.88;;
23310;SDS011;11828;51.508;18.118;2023-11-19T01:46:29;67.38;;;27.00;;
23310;SDS011;11828;51.508;18.118;2023-11-19T01:48:58;65.90;;;25.80;;
23310;SDS011;11828;51.508;18.118;2023-11-19T01:51:25;52.33;;;22.60;;
23310;SDS011;11828;51.508;18.118;2023-11-19T01:53:53;55.65;;;22.60;;
23310;SDS011;11828;51.508;18.118;2023-11-19T01:56:19;61.85;;;24.52;;
23310;SDS011;11828;51.508;18.118;2023-11-19T01:58:47;62.30;;;23.50;;
23310;SDS011;11828;51.508;18.118;2023-11-19T02:01:15;61.72;;;23.50;;
23310;SDS011;11828;51.508;18.118;2023-11-19T02:03:42;67.10;;;23.52;;
23310;SDS011;11828;51.508;18.118;2023-11-19T02:06:08;63.65;;;23.95;;
23310;SDS011;11828;51.508;18.118;2023-11-19T02:08:35;68.80;;;25.75;;
23310;SDS011;11828;51.508;18.118;2023-11-19T02:11:03;61.38;;;24.25;;
23310;SDS011;11828;51.508;18.118;2023-11-19T02:13:32;67.65;;;26.35;;
23310;SDS011;11828;51.508;18.118;2023-11-19T02:15:58;61.35;;;24.70;;
23310;SDS011;11828;51.508;18.118;2023-11-19T02:18:25;61.75;;;24.88;;
23310;SDS011;11828;51.508;18.118;2023-11-19T02:20:53;52.63;;;22.13;;
23310;SDS011;11828;51.508;18.118;2023-11-19T02:23:23;68.65;;;25.58;;
23310;SDS011;11828;51.508;18.118;2023-11-19T02:26:03;64.72;;;25.83;;
23310;SDS011;11828;51.508;18.118;2023-11-19T02:28:44;61.15;;;24.85;;
23310;SDS011;11828;51.508;18.118;2023-11-19T02:31:10;66.35;;;24.73;;
23310;SDS011;11828;51.508;18.118;2023-11-19T02:33:37;55.05;;;22.63;;
23310;SDS011;11828;51.508;18.118;2023-11-19T02:36:07;56.03;;;22.98;;
23310;SDS011;11828;51.508;18.118;2023-11-19T02:38:34;52.53;;;20.50;;
23310;SDS011;11828;51.508;18.118;2023-11-19T02:41:04;56.30;;;22.60;;
23310;SDS011;11828;51.508;18.118;2023-11-19T02:43:32;65.38;;;24.17;;
23310;SDS011;11828;51.508;18.118;2023-11-19T02:46:03;59.95;;;23.48;;
23310;SDS011;11828;51.508;18.118;2023-11-19T02:48:33;66.95;;;23.48;;
23310;SDS011;11828;51.508;18.118;2023-11-19T02:51:02;62.35;;;22.35;;
23310;SDS011;11828;51.508;18.118;2023-11-19T02:53:29;59.53;;;22.70;;
23310;SDS011;11828;51.508;18.118;2023-11-19T02:55:57;51.35;;;21.23;;
23310;SDS011;11828;51.508;18.118;2023-11-19T02:58:31;57.42;;;21.73;;
23310;SDS011;11828;51.508;18.118;2023-11-19T03:00:57;51.75;;;21.40;;
23310;SDS011;11828;51.508;18.118;2023-11-19T03:03:25;53.72;;;22.20;;
23310;SDS011;11828;51.508;18.118;2023-11-19T03:06:06;51.17;;;21.75;;
23310;SDS011;11828;51.508;18.118;2023-11-19T03:08:35;56.80;;;21.80;;
23310;SDS011;11828;51.508;18.118;2023-11-19T03:11:01;52.40;;;20.42;;
23310;SDS011;11828;51.508;18.118;2023-11-19T03:13:28;47.05;;;19.02;;
23310;SDS011;11828;51.508;18.118;2023-11-19T03:15:53;50.75;;;21.33;;
23310;SDS011;11828;51.508;18.118;2023-11-19T03:18:20;53.97;;;20.88;;
23310;SDS011;11828;51.508;18.118;2023-11-19T03:20:46;49.65;;;20.92;;
23310;SDS011;11828;51.508;18.118;2023-11-19T03:23:12;49.22;;;20.55;;
23310;SDS011;11828;51.508;18.118;2023-11-19T03:25:39;48.85;;;19.33;;
23310;SDS011;11828;51.508;18.118;2023-11-19T03:28:05;48.58;;;19.98;;
23310;SDS011;11828;51.508;18.118;2023-11-19T03:30:31;47.53;;;19.17;;
23310;SDS011;11828;51.508;18.118;2023-11-19T03:32:58;46.92;;;19.38;;
23310;SDS011;11828;51.508;18.118;2023-11-19T03:35:26;44.78;;;18.50;;
23310;SDS011;11828;51.508;18.118;2023-11-19T03:37:53;48.00;;;19.40;;
23310;SDS011;11828;51.508;18.118;2023-11-19T03:40:19;43.53;;;17.83;;
23310;SDS011;11828;51.508;18.118;2023-11-19T03:42:46;48.97;;;19.52;;
23310;SDS011;11828;51.508;18.118;2023-11-19T03:45:12;47.80;;;19.75;;
23310;SDS011;11828;51.508;18.118;2023-11-19T03:47:38;47.60;;;18.98;;
23310;SDS011;11828;51.508;18.118;2023-11-19T03:50:05;50.08;;;20.27;;
23310;SDS011;11828;51.508;18.118;2023-11-19T03:52:33;50.00;;;20.02;;
23310;SDS011;11828;51.508;18.118;2023-11-19T03:55:00;46.88;;;18.48;;
23310;SDS011;11828;51.508;18.118;2023-11-19T03:57:27;49.05;;;18.65;;
23310;SDS011;11828;51.508;18.118;2023-11-19T03:59:53;49.60;;;19.25;;
23310;SDS011;11828;51.508;18.118;2023-11-19T04:02:21;61.70;;;26.48;;
23310;SDS011;11828;51.508;18.118;2023-11-19T04:04:47;232.45;;;103.55;;
23310;SDS011;11828;51.508;18.118;2023-11-19T04:07:13;198.57;;;76.60;;
23310;SDS011;11828;51.508;18.118;2023-11-19T04:09:40;216.15;;;85.68;;
23310;SDS011;11828;51.508;18.118;2023-11-19T04:12:07;203.98;;;81.28;;
23310;SDS011;11828;51.508;18.118;2023-11-19T04:14:33;186.82;;;74.43;;
23310;SDS011;11828;51.508;18.118;2023-11-19T04:16:59;207.52;;;85.90;;
23310;SDS011;11828;51.508;18.118;2023-11-19T04:19:25;225.50;;;84.85;;
23310;SDS011;11828;51.508;18.118;2023-11-19T04:21:52;214.27;;;107.73;;
23310;SDS011;11828;51.508;18.118;2023-11-19T04:24:18;227.00;;;135.57;;
23310;SDS011;11828;51.508;18.118;2023-11-19T04:26:45;45.70;;;19.15;;
23310;SDS011;11828;51.508;18.118;2023-11-19T04:29:12;45.13;;;18.80;;
23310;SDS011;11828;51.508;18.118;2023-11-19T04:31:43;43.53;;;18.02;;
23310;SDS011;11828;51.508;18.118;2023-11-19T04:34:09;47.38;;;17.73;;
23310;SDS011;11828;51.508;18.118;2023-11-19T04:36:36;43.67;;;17.73;;
23310;SDS011;11828;51.508;18.118;2023-11-19T04:39:03;44.38;;;17.33;;
23310;SDS011;11828;51.508;18.118;2023-11-19T04:41:50;40.75;;;17.02;;
23310;SDS011;11828;51.508;18.118;2023-11-19T04:44:20;43.28;;;16.98;;
23310;SDS011;11828;51.508;18.118;2023-11-19T04:46:47;37.05;;;16.55;;
23310;SDS011;11828;51.508;18.118;2023-11-19T04:49:13;43.95;;;17.67;;
23310;SDS011;11828;51.508;18.118;2023-11-19T04:51:44;44.50;;;18.13;;
23310;SDS011;11828;51.508;18.118;2023-11-19T04:54:15;47.60;;;17.27;;
23310;SDS011;11828;51.508;18.118;2023-11-19T04:56:44;40.15;;;17.05;;
23310;SDS011;11828;51.508;18.118;2023-11-19T04:59:11;40.95;;;19.25;;
23310;SDS011;11828;51.508;18.118;2023-11-19T05:01:38;43.00;;;17.15;;
23310;SDS011;11828;51.508;18.118;2023-11-19T05:04:03;47.05;;;21.45;;
23310;SDS011;11828;51.508;18.118;2023-11-19T05:06:30;56.30;;;22.30;;
23310;SDS011;11828;51.508;18.118;2023-11-19T05:08:58;46.38;;;25.08;;
23310;SDS011;11828;51.508;18.118;2023-11-19T05:11:33;41.28;;;15.40;;
23310;SDS011;11828;51.508;18.118;2023-11-19T05:14:01;35.92;;;15.95;;
23310;SDS011;11828;51.508;18.118;2023-11-19T05:16:31;45.03;;;18.10;;
23310;SDS011;11828;51.508;18.118;2023-11-19T05:18:57;40.35;;;19.88;;
23310;SDS011;11828;51.508;18.118;2023-11-19T05:21:23;48.53;;;27.38;;
23310;SDS011;11828;51.508;18.118;2023-11-19T05:23:49;84.82;;;55.05;;
23310;SDS011;11828;51.508;18.118;2023-11-19T05:26:19;45.95;;;23.05;;
23310;SDS011;11828;51.508;18.118;2023-11-19T05:28:47;59.17;;;37.75;;
23310;SDS011;11828;51.508;18.118;2023-11-19T05:31:13;91.10;;;58.00;;
23310;SDS011;11828;51.508;18.118;2023-11-19T05:33:39;99.00;;;59.90;;
23310;SDS011;11828;51.508;18.118;2023-11-19T05:36:06;110.45;;;64.30;;
23310;SDS011;11828;51.508;18.118;2023-11-19T05:38:33;131.95;;;69.90;;
23310;SDS011;11828;51.508;18.118;2023-11-19T05:41:01;125.75;;;68.53;;
23310;SDS011;11828;51.508;18.118;2023-11-19T05:43:28;136.75;;;71.30;;
23310;SDS011;11828;51.508;18.118;2023-11-19T05:45:54;116.05;;;67.43;;
23310;SDS011;11828;51.508;18.118;2023-11-19T05:48:20;127.03;;;68.32;;
23310;SDS011;11828;51.508;18.118;2023-11-19T05:50:46;138.27;;;69.93;;
23310;SDS011;11828;51.508;18.118;2023-11-19T05:53:14;109.30;;;64.53;;
23310;SDS011;11828;51.508;18.118;2023-11-19T05:55:41;104.68;;;62.88;;
23310;SDS011;11828;51.508;18.118;2023-11-19T05:58:14;114.78;;;65.38;;
23310;SDS011;11828;51.508;18.118;2023-11-19T06:00:40;141.57;;;72.32;;
23310;SDS011;11828;51.508;18.118;2023-11-19T06:03:07;118.95;;;65.88;;
23310;SDS011;11828;51.508;18.118;2023-11-19T06:05:33;134.68;;;68.72;;
23310;SDS011;11828;51.508;18.118;2023-11-19T06:07:59;138.82;;;70.15;;
23310;SDS011;11828;51.508;18.118;2023-11-19T06:10:25;146.38;;;74.22;;
23310;SDS011;11828;51.508;18.118;2023-11-19T06:12:59;139.95;;;73.65;;
23310;SDS011;11828;51.508;18.118;2023-11-19T06:15:25;136.73;;;71.25;;
23310;SDS011;11828;51.508;18.118;2023-11-19T06:17:52;139.27;;;71.95;;
23310;SDS011;11828;51.508;18.118;2023-11-19T06:20:18;150.40;;;74.97;;
23310;SDS011;11828;51.508;18.118;2023-11-19T06:22:47;134.85;;;72.15;;
23310;SDS011;11828;51.508;18.118;2023-11-19T06:25:13;131.00;;;68.55;;
23310;SDS011;11828;51.508;18.118;2023-11-19T06:27:40;121.43;;;66.63;;
23310;SDS011;11828;51.508;18.118;2023-11-19T06:30:08;110.57;;;66.30;;
23310;SDS011;11828;51.508;18.118;2023-11-19T06:32:35;112.38;;;64.57;;
23310;SDS011;11828;51.508;18.118;2023-11-19T06:35:01;105.57;;;61.38;;
23310;SDS011;11828;51.508;18.118;2023-11-19T06:37:29;107.90;;;63.47;;
23310;SDS011;11828;51.508;18.118;2023-11-19T06:39:56;111.10;;;63.22;;
23310;SDS011;11828;51.508;18.118;2023-11-19T06:42:22;124.10;;;68.90;;
23310;SDS011;11828;51.508;18.118;2023-11-19T06:44:48;106.82;;;63.75;;
23310;SDS011;11828;51.508;18.118;2023-11-19T06:47:14;106.53;;;62.08;;
23310;SDS011;11828;51.508;18.118;2023-11-19T06:49:43;126.28;;;66.15;;
23310;SDS011;11828;51.508;18.118;2023-11-19T06:52:09;96.97;;;60.17;;
23310;SDS011;11828;51.508;18.118;2023-11-19T06:54:36;156.00;;;77.18;;
23310;SDS011;11828;51.508;18.118;2023-11-19T06:57:04;131.82;;;72.32;;
23310;SDS011;11828;51.508;18.118;2023-11-19T06:59:30;137.80;;;75.43;;
23310;SDS011;11828;51.508;18.118;2023-11-19T07:01:56;103.82;;;64.45;;
23310;SDS011;11828;51.508;18.118;2023-11-19T07:04:23;94.60;;;60.38;;
23310;SDS011;11828;51.508;18.118;2023-11-19T07:06:49;98.88;;;59.90;;
23310;SDS011;11828;51.508;18.118;2023-11-19T07:09:15;92.35;;;55.45;;
23310;SDS011;11828;51.508;18.118;2023-11-19T07:11:41;127.68;;;70.90;;
23310;SDS011;11828;51.508;18.118;2023-11-19T07:14:08;121.82;;;67.20;;
23310;SDS011;11828;51.508;18.118;2023-11-19T07:16:34;118.90;;;68.57;;
23310;SDS011;11828;51.508;18.118;2023-11-19T07:19:11;112.97;;;65.85;;
23310;SDS011;11828;51.508;18.118;2023-11-19T07:21:37;106.85;;;65.78;;
23310;SDS011;11828;51.508;18.118;2023-11-19T07:24:09;129.98;;;70.38;;
23310;SDS011;11828;51.508;18.118;2023-11-19T07:26:45;141.07;;;73.57;;
23310;SDS011;11828;51.508;18.118;2023-11-19T07:29:15;120.57;;;68.40;;
23310;SDS011;11828;51.508;18.118;2023-11-19T07:31:43;126.07;;;70.88;;
23310;SDS011;11828;51.508;18.118;2023-11-19T07:34:10;119.93;;;68.70;;
23310;SDS011;11828;51.508;18.118;2023-11-19T07:36:37;137.85;;;72.85;;
23310;SDS011;11828;51.508;18.118;2023-11-19T07:39:04;134.75;;;73.05;;
23310;SDS011;11828;51.508;18.118;2023-11-19T07:41:30;141.75;;;74.55;;
23310;SDS011;11828;51.508;18.118;2023-11-19T07:43:57;136.32;;;74.88;;
23310;SDS011;11828;51.508;18.118;2023-11-19T07:46:23;121.88;;;71.25;;
23310;SDS011;11828;51.508;18.118;2023-11-19T07:48:50;135.23;;;78.25;;
23310;SDS011;11828;51.508;18.118;2023-11-19T07:51:17;128.55;;;74.47;;
23310;SDS011;11828;51.508;18.118;2023-11-19T07:53:44;118.15;;;69.82;;
23310;SDS011;11828;51.508;18.118;2023-11-19T07:56:10;147.98;;;78.63;;
23310;SDS011;11828;51.508;18.118;2023-11-19T07:58:36;152.55;;;86.60;;
23310;SDS011;11828;51.508;18.118;2023-11-19T08:01:02;447.83;;;178.05;;
23310;SDS011;11828;51.508;18.118;2023-11-19T08:03:30;220.55;;;98.57;;
23310;SDS011;11828;51.508;18.118;2023-11-19T08:05:56;165.15;;;77.60;;
23310;SDS011;11828;51.508;18.118;2023-11-19T08:08:23;140.48;;;74.35;;
23310;SDS011;11828;51.508;18.118;2023-11-19T08:10:49;140.75;;;71.95;;
23310;SDS011;11828;51.508;18.118;2023-11-19T08:13:20;140.93;;;73.47;;
23310;SDS011;11828;51.508;18.118;2023-11-19T08:15:46;117.88;;;63.75;;
23310;SDS011;11828;51.508;18.118;2023-11-19T08:18:12;157.23;;;74.97;;
23310;SDS011;11828;51.508;18.118;2023-11-19T08:20:38;122.20;;;66.90;;
23310;SDS011;11828;51.508;18.118;2023-11-19T08:23:05;124.13;;;63.92;;
23310;SDS011;11828;51.508;18.118;2023-11-19T08:25:31;111.97;;;66.82;;
23310;SDS011;11828;51.508;18.118;2023-11-19T08:27:59;89.85;;;50.78;;
23310;SDS011;11828;51.508;18.118;2023-11-19T08:30:25;83.07;;;55.60;;
23310;SDS011;11828;51.508;18.118;2023-11-19T08:32:52;96.88;;;55.40;;
23310;SDS011;11828;51.508;18.118;2023-11-19T08:35:18;90.07;;;60.22;;
23310;SDS011;11828;51.508;18.118;2023-11-19T08:37:44;133.18;;;73.55;;
23310;SDS011;11828;51.508;18.118;2023-11-19T08:40:11;133.60;;;76.70;;
23310;SDS011;11828;51.508;18.118;2023-11-19T08:42:40;136.63;;;76.85;;
23310;SDS011;11828;51.508;18.118;2023-11-19T08:45:06;116.38;;;71.65;;
23310;SDS011;11828;51.508;18.118;2023-11-19T08:47:36;84.72;;;58.67;;
23310;SDS011;11828;51.508;18.118;2023-11-19T08:50:05;113.28;;;64.40;;
23310;SDS011;11828;51.508;18.118;2023-11-19T08:52:32;134.93;;;78.65;;
23310;SDS011;11828;51.508;18.118;2023-11-19T08:54:58;108.00;;;66.50;;
23310;SDS011;11828;51.508;18.118;2023-11-19T08:57:24;111.07;;;67.82;;
23310;SDS011;11828;51.508;18.118;2023-11-19T08:59:50;143.52;;;79.90;;
23310;SDS011;11828;51.508;18.118;2023-11-19T09:02:16;125.30;;;73.07;;
23310;SDS011;11828;51.508;18.118;2023-11-19T09:04:43;140.98;;;74.90;;
23310;SDS011;11828;51.508;18.118;2023-11-19T09:07:10;151.55;;;79.85;;
23310;SDS011;11828;51.508;18.118;2023-11-19T09:09:36;128.07;;;74.85;;
23310;SDS011;11828;51.508;18.118;2023-11-19T09:12:02;150.93;;;79.68;;
23310;SDS011;11828;51.508;18.118;2023-11-19T09:14:29;151.43;;;108.80;;
23310;SDS011;11828;51.508;18.118;2023-11-19T09:16:56;167.85;;;111.15;;
23310;SDS011;11828;51.508;18.118;2023-11-19T09:19:23;143.38;;;102.95;;
23310;SDS011;11828;51.508;18.118;2023-11-19T09:21:50;138.73;;;97.30;;
23310;SDS011;11828;51.508;18.118;2023-11-19T09:24:16;168.90;;;111.80;;
23310;SDS011;11828;51.508;18.118;2023-11-19T09:26:42;172.13;;;120.85;;
23310;SDS011;11828;51.508;18.118;2023-11-19T09:29:08;181.65;;;118.63;;
23310;SDS011;11828;51.508;18.118;2023-11-19T09:31:34;189.35;;;118.88;;
23310;SDS011;11828;51.508;18.118;2023-11-19T09:34:03;166.98;;;86.22;;
23310;SDS011;11828;51.508;18.118;2023-11-19T09:36:29;158.82;;;82.07;;
23310;SDS011;11828;51.508;18.118;2023-11-19T09:38:55;155.20;;;79.85;;
23310;SDS011;11828;51.508;18.118;2023-11-19T09:41:21;124.82;;;71.15;;
23310;SDS011;11828;51.508;18.118;2023-11-19T09:43:48;135.52;;;72.75;;
23310;SDS011;11828;51.508;18.118;2023-11-19T09:46:15;178.70;;;85.85;;
23310;SDS011;11828;51.508;18.118;2023-11-19T09:48:42;172.65;;;83.72;;
23310;SDS011;11828;51.508;18.118;2023-11-19T09:51:10;163.80;;;83.30;;
23310;SDS011;11828;51.508;18.118;2023-11-19T09:53:36;146.38;;;77.72;;
23310;SDS011;11828;51.508;18.118;2023-11-19T09:56:03;166.13;;;81.55;;
23310;SDS011;11828;51.508;18.118;2023-11-19T09:58:31;182.55;;;85.70;;
23310;SDS011;11828;51.508;18.118;2023-11-19T10:00:58;171.63;;;83.90;;
23310;SDS011;11828;51.508;18.118;2023-11-19T10:03:31;194.77;;;94.35;;
23310;SDS011;11828;51.508;18.118;2023-11-19T10:06:01;203.90;;;95.30;;
23310;SDS011;11828;51.508;18.118;2023-11-19T10:08:27;210.10;;;91.30;;
23310;SDS011;11828;51.508;18.118;2023-11-19T10:10:54;191.43;;;87.68;;
23310;SDS011;11828;51.508;18.118;2023-11-19T10:13:25;177.07;;;85.65;;
23310;SDS011;11828;51.508;18.118;2023-11-19T10:15:53;143.50;;;78.80;;
23310;SDS011;11828;51.508;18.118;2023-11-19T10:18:23;142.10;;;77.97;;
23310;SDS011;11828;51.508;18.118;2023-11-19T10:20:52;125.28;;;71.55;;
23310;SDS011;11828;51.508;18.118;2023-11-19T10:23:20;96.78;;;56.47;;
23310;SDS011;11828;51.508;18.118;2023-11-19T10:25:47;137.77;;;71.55;;
23310;SDS011;11828;51.508;18.118;2023-11-19T10:28:15;142.98;;;72.10;;
23310;SDS011;11828;51.508;18.118;2023-11-19T10:30:44;134.05;;;74.60;;
23310;SDS011;11828;51.508;18.118;2023-11-19T10:33:15;145.27;;;77.03;;
23310;SDS011;11828;51.508;18.118;2023-11-19T10:35:55;170.55;;;79.97;;
23310;SDS011;11828;51.508;18.118;2023-11-19T10:38:23;142.35;;;76.07;;
23310;SDS011;11828;51.508;18.118;2023-11-19T10:40:50;139.90;;;74.70;;
23310;SDS011;11828;51.508;18.118;2023-11-19T10:43:17;123.50;;;68.70;;
23310;SDS011;11828;51.508;18.118;2023-11-19T10:45:48;135.02;;;72.93;;
23310;SDS011;11828;51.508;18.118;2023-11-19T10:48:15;133.25;;;71.68;;
23310;SDS011;11828;51.508;18.118;2023-11-19T10:50:42;130.40;;;68.65;;
23310;SDS011;11828;51.508;18.118;2023-11-19T10:53:10;161.57;;;83.32;;
23310;SDS011;11828;51.508;18.118;2023-11-19T10:55:41;177.48;;;91.15;;
23310;SDS011;11828;51.508;18.118;2023-11-19T10:58:11;203.52;;;94.82;;
23310;SDS011;11828;51.508;18.118;2023-11-19T11:00:46;199.13;;;92.25;;
23310;SDS011;11828;51.508;18.118;2023-11-19T11:03:20;182.75;;;87.03;;
23310;SDS011;11828;51.508;18.118;2023-11-19T11:05:48;137.88;;;74.80;;
23310;SDS011;11828;51.508;18.118;2023-11-19T11:08:16;142.38;;;74.47;;
23310;SDS011;11828;51.508;18.118;2023-11-19T11:13:19;127.82;;;71.75;;
23310;SDS011;11828;51.508;18.118;2023-11-19T11:15:50;139.93;;;76.53;;
23310;SDS011;11828;51.508;18.118;2023-11-19T11:18:16;134.55;;;77.00;;
23310;SDS011;11828;51.508;18.118;2023-11-19T11:20:46;120.22;;;74.30;;
23310;SDS011;11828;51.508;18.118;2023-11-19T11:29:02;116.72;;;65.95;;
23310;SDS011;11828;51.508;18.118;2023-11-19T11:32:04;122.20;;;75.43;;
23310;SDS011;11828;51.508;18.118;2023-11-19T11:35:11;88.65;;;56.85;;
23310;SDS011;11828;51.508;18.118;2023-11-19T11:38:07;105.03;;;69.15;;
23310;SDS011;11828;51.508;18.118;2023-11-19T11:40:34;112.95;;;69.47;;
23310;SDS011;11828;51.508;18.118;2023-11-19T11:43:02;116.95;;;67.53;;
23310;SDS011;11828;51.508;18.118;2023-11-19T11:45:35;115.35;;;69.90;;
23310;SDS011;11828;51.508;18.118;2023-11-19T11:48:09;117.90;;;71.80;;
23310;SDS011;11828;51.508;18.118;2023-11-19T11:50:48;114.93;;;67.07;;
23310;SDS011;11828;51.508;18.118;2023-11-19T11:53:19;121.68;;;68.85;;
23310;SDS011;11828;51.508;18.118;2023-11-19T11:58:19;118.07;;;67.00;;
23310;SDS011;11828;51.508;18.118;2023-11-19T12:00:47;115.28;;;65.13;;
23310;SDS011;11828;51.508;18.118;2023-11-19T12:03:14;131.05;;;72.65;;
23310;SDS011;11828;51.508;18.118;2023-11-19T12:05:46;136.88;;;69.65;;
23310;SDS011;11828;51.508;18.118;2023-11-19T12:08:14;107.38;;;62.97;;
23310;SDS011;11828;51.508;18.118;2023-11-19T12:10:52;100.38;;;62.72;;
23310;SDS011;11828;51.508;18.118;2023-11-19T12:16:27;121.75;;;68.95;;
23310;SDS011;11828;51.508;18.118;2023-11-19T12:18:55;129.23;;;73.90;;
23310;SDS011;11828;51.508;18.118;2023-11-19T12:21:31;131.68;;;74.25;;
23310;SDS011;11828;51.508;18.118;2023-11-19T12:23:58;125.25;;;72.90;;
23310;SDS011;11828;51.508;18.118;2023-11-19T12:26:36;132.93;;;75.40;;
23310;SDS011;11828;51.508;18.118;2023-11-19T12:29:03;114.72;;;70.03;;
23310;SDS011;11828;51.508;18.118;2023-11-19T12:31:31;119.43;;;72.10;;
23310;SDS011;11828;51.508;18.118;2023-11-19T12:33:57;119.93;;;67.85;;
23310;SDS011;11828;51.508;18.118;2023-11-19T12:36:23;116.95;;;63.80;;
23310;SDS011;11828;51.508;18.118;2023-11-19T12:38:50;120.70;;;68.15;;
23310;SDS011;11828;51.508;18.118;2023-11-19T12:41:16;106.15;;;63.25;;
23310;SDS011;11828;51.508;18.118;2023-11-19T12:43:46;124.18;;;68.93;;
23310;SDS011;11828;51.508;18.118;2023-11-19T12:46:21;123.80;;;75.40;;
23310;SDS011;11828;51.508;18.118;2023-11-19T12:48:48;100.15;;;63.83;;
23310;SDS011;11828;51.508;18.118;2023-11-19T12:51:15;103.18;;;59.40;;
23310;SDS011;11828;51.508;18.118;2023-11-19T12:53:49;147.43;;;77.20;;
23310;SDS011;11828;51.508;18.118;2023-11-19T12:56:20;85.07;;;46.75;;
23310;SDS011;11828;51.508;18.118;2023-11-19T12:58:47;68.90;;;42.35;;
23310;SDS011;11828;51.508;18.118;2023-11-19T13:01:17;77.55;;;54.33;;
23310;SDS011;11828;51.508;18.118;2023-11-19T13:03:45;57.40;;;35.67;;
23310;SDS011;11828;51.508;18.118;2023-11-19T13:06:14;67.68;;;42.30;;
23310;SDS011;11828;51.508;18.118;2023-11-19T13:08:42;99.80;;;59.42;;
23310;SDS011;11828;51.508;18.118;2023-11-19T13:11:10;76.20;;;55.20;;
23310;SDS011;11828;51.508;18.118;2023-11-19T13:13:53;78.22;;;47.63;;
23310;SDS011;11828;51.508;18.118;2023-11-19T13:16:25;89.45;;;39.20;;
23310;SDS011;11828;51.508;18.118;2023-11-19T13:18:52;109.03;;;45.50;;
23310;SDS011;11828;51.508;18.118;2023-11-19T13:21:18;119.32;;;67.55;;
23310;SDS011;11828;51.508;18.118;2023-11-19T13:23:45;98.03;;;59.03;;
23310;SDS011;11828;51.508;18.118;2023-11-19T13:26:11;111.53;;;68.35;;
23310;SDS011;11828;51.508;18.118;2023-11-19T13:28:38;122.28;;;72.18;;
23310;SDS011;11828;51.508;18.118;2023-11-19T13:31:04;117.03;;;73.05;;
23310;SDS011;11828;51.508;18.118;2023-11-19T13:33:31;84.22;;;54.95;;
23310;SDS011;11828;51.508;18.118;2023-11-19T13:35:57;80.05;;;56.22;;
23310;SDS011;11828;51.508;18.118;2023-11-19T13:38:23;56.40;;;31.08;;
23310;SDS011;11828;51.508;18.118;2023-11-19T13:40:49;50.10;;;32.88;;
23310;SDS011;11828;51.508;18.118;2023-11-19T13:43:16;47.53;;;30.27;;
23310;SDS011;11828;51.508;18.118;2023-11-19T13:45:42;50.53;;;36.58;;
23310;SDS011;11828;51.508;18.118;2023-11-19T13:48:09;73.10;;;51.33;;
23310;SDS011;11828;51.508;18.118;2023-11-19T13:50:34;133.27;;;69.25;;
23310;SDS011;11828;51.508;18.118;2023-11-19T13:53:01;101.03;;;62.05;;
23310;SDS011;11828;51.508;18.118;2023-11-19T13:55:27;110.45;;;64.20;;
23310;SDS011;11828;51.508;18.118;2023-11-19T13:57:53;64.47;;;43.45;;
23310;SDS011;11828;51.508;18.118;2023-11-19T14:00:19;48.13;;;29.30;;
23310;SDS011;11828;51.508;18.118;2023-11-19T14:02:48;81.38;;;55.60;;
23310;SDS011;11828;51.508;18.118;2023-11-19T14:05:15;95.82;;;57.38;;
23310;SDS011;11828;51.508;18.118;2023-11-19T14:07:45;61.20;;;44.72;;
23310;SDS011;11828;51.508;18.118;2023-11-19T14:10:13;91.40;;;56.10;;
23310;SDS011;11828;51.508;18.118;2023-11-19T14:12:41;69.93;;;48.40;;
23310;SDS011;11828;51.508;18.118;2023-11-19T14:15:07;49.83;;;33.03;;
23310;SDS011;11828;51.508;18.118;2023-11-19T14:17:38;62.83;;;35.63;;
23310;SDS011;11828;51.508;18.118;2023-11-19T14:20:04;73.18;;;37.42;;